Stockton, Georgia
Current Conditions -  °F | °C
As of 10:58 AM on Saturday 25 Oct 2014 (Local Time) from KVAD Reporting Station
Clear Clear  
Wind Chill: 68°   Ceiling: Unl
Heat Index: 68°   Visibility: 10mi
Dew Point: 47°   Wind: 6mph
Humidity: 47%   Direction: 320°NW
Pressure: 30.05"   Gusts: NA
Location:  30.94°N, 83°W
Report Text: KVAD 251458Z AUTO 32005KT 10SM CLR 20/08 A3005 RMK AO2 SLP178 T01990084 51010 $
Loading
Personal Weather Stations






























Interactive Weather Map
Tropical Storm Tracking
New forecast layout! Learn more

10-Day Weather Forecast

Advertisements
Track Severe Weather on mobile